sensor_id;sensor_type;location;lat;lon;timestamp;pressure;altitude;pressure_sealevel;temperature;humidity
51359;BME280;37448;51.588;7.248;2022-08-16T00:00:40;99887.13;;;21.34;76.77
51359;BME280;37448;51.588;7.248;2022-08-16T00:03:11;99894.00;;;21.33;75.27
51359;BME280;37448;51.588;7.248;2022-08-16T00:05:42;99893.50;;;21.35;74.59
51359;BME280;37448;51.588;7.248;2022-08-16T00:08:13;99894.00;;;21.33;74.35
51359;BME280;37448;51.588;7.248;2022-08-16T00:10:43;99885.25;;;21.31;74.33
51359;BME280;37448;51.588;7.248;2022-08-16T00:13:14;99888.97;;;21.28;73.79
51359;BME280;37448;51.588;7.248;2022-08-16T00:15:46;99887.22;;;21.22;73.91
51359;BME280;37448;51.588;7.248;2022-08-16T00:18:17;99888.47;;;21.21;74.55
51359;BME280;37448;51.588;7.248;2022-08-16T00:20:48;99891.72;;;21.19;73.68
51359;BME280;37448;51.588;7.248;2022-08-16T00:23:18;99901.78;;;21.17;73.59
51359;BME280;37448;51.588;7.248;2022-08-16T00:25:49;99898.41;;;21.09;73.94
51359;BME280;37448;51.588;7.248;2022-08-16T00:28:19;99900.56;;;21.05;74.08
51359;BME280;37448;51.588;7.248;2022-08-16T00:30:50;99900.50;;;20.96;74.83
51359;BME280;37448;51.588;7.248;2022-08-16T00:33:21;99893.94;;;20.90;74.85
51359;BME280;37448;51.588;7.248;2022-08-16T00:35:51;99897.63;;;20.87;75.01
51359;BME280;37448;51.588;7.248;2022-08-16T00:38:22;99897.22;;;20.76;75.48
51359;BME280;37448;51.588;7.248;2022-08-16T00:40:53;99895.78;;;20.71;75.59
51359;BME280;37448;51.588;7.248;2022-08-16T00:43:34;99899.59;;;20.65;76.03
51359;BME280;37448;51.588;7.248;2022-08-16T00:48:35;99898.19;;;20.47;77.02
51359;BME280;37448;51.588;7.248;2022-08-16T00:51:06;99896.97;;;20.48;76.84
51359;BME280;37448;51.588;7.248;2022-08-16T00:53:36;99896.19;;;20.48;76.94
51359;BME280;37448;51.588;7.248;2022-08-16T00:56:12;99901.34;;;20.49;76.97
51359;BME280;37448;51.588;7.248;2022-08-16T00:58:45;99904.44;;;20.51;76.62
51359;BME280;37448;51.588;7.248;2022-08-16T01:01:17;99898.72;;;20.55;76.76
51359;BME280;37448;51.588;7.248;2022-08-16T01:03:50;99904.44;;;20.51;76.89
51359;BME280;37448;51.588;7.248;2022-08-16T01:06:22;99898.84;;;20.51;76.91
51359;BME280;37448;51.588;7.248;2022-08-16T01:08:54;99912.50;;;20.49;77.39
51359;BME280;37448;51.588;7.248;2022-08-16T01:11:26;99906.00;;;20.52;76.75
51359;BME280;37448;51.588;7.248;2022-08-16T01:14:08;99907.56;;;20.54;76.71
51359;BME280;37448;51.588;7.248;2022-08-16T01:16:41;99913.81;;;20.58;76.72
51359;BME280;37448;51.588;7.248;2022-08-16T01:19:31;99906.66;;;20.57;76.86
51359;BME280;37448;51.588;7.248;2022-08-16T01:22:27;99909.13;;;20.55;77.05
51359;BME280;37448;51.588;7.248;2022-08-16T01:25:24;99910.25;;;20.57;76.97
51359;BME280;37448;51.588;7.248;2022-08-16T01:27:57;99908.22;;;20.58;76.53
51359;BME280;37448;51.588;7.248;2022-08-16T01:30:32;99906.19;;;20.58;76.43
51359;BME280;37448;51.588;7.248;2022-08-16T01:33:05;99902.66;;;20.58;76.83
51359;BME280;37448;51.588;7.248;2022-08-16T01:35:57;99899.84;;;20.58;77.03
51359;BME280;37448;51.588;7.248;2022-08-16T01:38:32;99900.50;;;20.62;76.79
51359;BME280;37448;51.588;7.248;2022-08-16T01:41:07;99898.03;;;20.64;76.63
51359;BME280;37448;51.588;7.248;2022-08-16T01:43:41;99894.47;;;20.63;76.71
51359;BME280;37448;51.588;7.248;2022-08-16T01:46:28;99895.25;;;20.64;76.61
51359;BME280;37448;51.588;7.248;2022-08-16T01:49:03;99894.03;;;20.65;76.44
51359;BME280;37448;51.588;7.248;2022-08-16T01:51:34;99891.34;;;20.61;76.87
51359;BME280;37448;51.588;7.248;2022-08-16T01:54:06;99896.16;;;20.61;76.87
51359;BME280;37448;51.588;7.248;2022-08-16T01:56:37;99891.47;;;20.58;76.67
51359;BME280;37448;51.588;7.248;2022-08-16T01:59:10;99893.03;;;20.59;76.86
51359;BME280;37448;51.588;7.248;2022-08-16T02:01:41;99891.47;;;20.58;77.06
51359;BME280;37448;51.588;7.248;2022-08-16T02:04:12;99891.78;;;20.60;76.79
51359;BME280;37448;51.588;7.248;2022-08-16T02:06:42;99884.56;;;20.62;77.12
51359;BME280;37448;51.588;7.248;2022-08-16T02:09:14;99880.63;;;20.60;77.25
51359;BME280;37448;51.588;7.248;2022-08-16T02:11:50;99889.00;;;20.60;77.10
51359;BME280;37448;51.588;7.248;2022-08-16T02:14:23;99885.31;;;20.63;76.60
51359;BME280;37448;51.588;7.248;2022-08-16T02:16:57;99884.22;;;20.60;77.23
51359;BME280;37448;51.588;7.248;2022-08-16T02:19:29;99890.69;;;20.57;77.62
51359;BME280;37448;51.588;7.248;2022-08-16T02:22:00;99891.47;;;20.58;77.58
51359;BME280;37448;51.588;7.248;2022-08-16T02:24:30;99890.69;;;20.57;76.85
51359;BME280;37448;51.588;7.248;2022-08-16T02:27:01;99893.16;;;20.55;77.30
51359;BME280;37448;51.588;7.248;2022-08-16T02:29:31;99891.69;;;20.50;77.28
51359;BME280;37448;51.588;7.248;2022-08-16T02:32:02;99893.84;;;20.46;77.56
51359;BME280;37448;51.588;7.248;2022-08-16T02:34:33;99895.06;;;20.45;78.66
51359;BME280;37448;51.588;7.248;2022-08-16T02:37:04;99908.69;;;20.43;78.03
51359;BME280;37448;51.588;7.248;2022-08-16T02:39:35;99904.03;;;20.40;78.06
51359;BME280;37448;51.588;7.248;2022-08-16T02:42:05;99914.53;;;20.36;77.78
51359;BME280;37448;51.588;7.248;2022-08-16T02:44:35;99901.78;;;20.35;78.30
51359;BME280;37448;51.588;7.248;2022-08-16T02:47:06;99909.81;;;20.33;78.27
51359;BME280;37448;51.588;7.248;2022-08-16T02:49:36;99900.44;;;20.27;79.27
51359;BME280;37448;51.588;7.248;2022-08-16T02:52:07;99901.31;;;20.24;78.64
51359;BME280;37448;51.588;7.248;2022-08-16T02:54:37;99906.91;;;20.24;78.27
51359;BME280;37448;51.588;7.248;2022-08-16T02:57:08;99912.59;;;20.21;78.66
51359;BME280;37448;51.588;7.248;2022-08-16T02:59:38;99904.69;;;20.19;78.74
51359;BME280;37448;51.588;7.248;2022-08-16T03:02:11;99903.13;;;20.18;79.73
51359;BME280;37448;51.588;7.248;2022-08-16T03:04:42;99912.84;;;20.14;79.64
51359;BME280;37448;51.588;7.248;2022-08-16T03:07:12;99899.00;;;20.10;80.19
51359;BME280;37448;51.588;7.248;2022-08-16T03:09:43;99898.00;;;20.04;79.50
51359;BME280;37448;51.588;7.248;2022-08-16T03:12:14;99903.25;;;20.02;79.37
51359;BME280;37448;51.588;7.248;2022-08-16T03:14:44;99901.34;;;19.99;79.19
51359;BME280;37448;51.588;7.248;2022-08-16T03:17:16;99907.50;;;19.94;79.39
51359;BME280;37448;51.588;7.248;2022-08-16T03:19:46;99908.47;;;19.87;79.49
51359;BME280;37448;51.588;7.248;2022-08-16T03:22:17;99912.94;;;19.85;81.60
51359;BME280;37448;51.588;7.248;2022-08-16T03:24:48;99908.69;;;19.80;82.20
51359;BME280;37448;51.588;7.248;2022-08-16T03:27:18;99908.34;;;19.78;81.84
51359;BME280;37448;51.588;7.248;2022-08-16T03:29:49;99919.63;;;19.75;80.49
51359;BME280;37448;51.588;7.248;2022-08-16T03:32:19;99905.00;;;19.71;80.95
51359;BME280;37448;51.588;7.248;2022-08-16T03:34:50;99912.69;;;19.67;82.60
51359;BME280;37448;51.588;7.248;2022-08-16T03:37:20;99906.44;;;19.63;81.47
51359;BME280;37448;51.588;7.248;2022-08-16T03:39:50;99908.13;;;19.60;81.24
51359;BME280;37448;51.588;7.248;2022-08-16T03:42:21;99916.91;;;19.58;81.07
51359;BME280;37448;51.588;7.248;2022-08-16T03:44:52;99916.56;;;19.56;82.96
51359;BME280;37448;51.588;7.248;2022-08-16T03:47:22;99915.47;;;19.54;83.26
51359;BME280;37448;51.588;7.248;2022-08-16T03:49:52;99910.88;;;19.47;82.95
51359;BME280;37448;51.588;7.248;2022-08-16T03:52:23;99910.53;;;19.45;83.03
51359;BME280;37448;51.588;7.248;2022-08-16T03:54:54;99912.63;;;19.41;83.71
51359;BME280;37448;51.588;7.248;2022-08-16T03:57:26;99907.16;;;19.38;82.98
51359;BME280;37448;51.588;7.248;2022-08-16T03:59:57;99919.09;;;19.38;83.53
51359;BME280;37448;51.588;7.248;2022-08-16T04:02:27;99914.72;;;19.37;82.77
51359;BME280;37448;51.588;7.248;2022-08-16T04:04:58;99919.94;;;19.35;82.71
51359;BME280;37448;51.588;7.248;2022-08-16T04:07:28;99920.72;;;19.36;82.87
51359;BME280;37448;51.588;7.248;2022-08-16T04:09:58;99925.50;;;19.35;83.15
51359;BME280;37448;51.588;7.248;2022-08-16T04:12:29;99925.63;;;19.32;83.40
51359;BME280;37448;51.588;7.248;2022-08-16T04:15:00;99931.97;;;19.32;82.71
51359;BME280;37448;51.588;7.248;2022-08-16T04:17:31;99925.19;;;19.33;83.43
51359;BME280;37448;51.588;7.248;2022-08-16T04:20:03;99926.75;;;19.34;83.07
51359;BME280;37448;51.588;7.248;2022-08-16T04:22:37;99937.56;;;19.32;82.54
51359;BME280;37448;51.588;7.248;2022-08-16T04:25:09;99941.91;;;19.33;82.63
51359;BME280;37448;51.588;7.248;2022-08-16T04:27:40;99942.22;;;19.35;82.71
51359;BME280;37448;51.588;7.248;2022-08-16T04:30:13;99937.91;;;19.34;82.84
51359;BME280;37448;51.588;7.248;2022-08-16T04:32:44;99930.41;;;19.31;83.21
51359;BME280;37448;51.588;7.248;2022-08-16T04:35:17;99937.22;;;19.30;83.46
51359;BME280;37448;51.588;7.248;2022-08-16T04:37:52;99939.13;;;19.33;82.72
51359;BME280;37448;51.588;7.248;2022-08-16T04:40:24;99941.13;;;19.33;82.68
51359;BME280;37448;51.588;7.248;2022-08-16T04:42:54;99938.69;;;19.35;82.46
51359;BME280;37448;51.588;7.248;2022-08-16T04:45:25;99939.44;;;19.35;82.09
51359;BME280;37448;51.588;7.248;2022-08-16T04:47:56;99943.13;;;19.32;82.42
51359;BME280;37448;51.588;7.248;2022-08-16T04:50:26;99941.13;;;19.33;83.04
51359;BME280;37448;51.588;7.248;2022-08-16T04:52:57;99941.56;;;19.31;83.03
51359;BME280;37448;51.588;7.248;2022-08-16T04:55:29;99949.59;;;19.29;82.92
51359;BME280;37448;51.588;7.248;2022-08-16T04:58:00;99951.94;;;19.31;82.71
51359;BME280;37448;51.588;7.248;2022-08-16T05:00:32;99959.06;;;19.32;83.24
51359;BME280;37448;51.588;7.248;2022-08-16T05:03:06;99964.44;;;19.39;82.88
51359;BME280;37448;51.588;7.248;2022-08-16T05:05:39;99963.56;;;19.42;82.50
51359;BME280;37448;51.588;7.248;2022-08-16T05:08:10;99964.28;;;19.46;82.73
51359;BME280;37448;51.588;7.248;2022-08-16T05:10:40;99964.16;;;19.49;83.28
51359;BME280;37448;51.588;7.248;2022-08-16T05:13:11;99975.56;;;19.55;82.49
51359;BME280;37448;51.588;7.248;2022-08-16T05:15:41;99972.56;;;19.62;82.68
51359;BME280;37448;51.588;7.248;2022-08-16T05:18:12;99973.91;;;19.70;83.09
51359;BME280;37448;51.588;7.248;2022-08-16T05:20:43;99972.03;;;19.80;82.99
51359;BME280;37448;51.588;7.248;2022-08-16T05:23:13;99968.19;;;19.90;82.47
51359;BME280;37448;51.588;7.248;2022-08-16T05:25:46;99967.41;;;20.02;82.26
51359;BME280;37448;51.588;7.248;2022-08-16T05:28:16;99977.53;;;20.08;82.01
51359;BME280;37448;51.588;7.248;2022-08-16T05:30:47;99975.88;;;20.11;81.60
51359;BME280;37448;51.588;7.248;2022-08-16T05:33:20;99969.41;;;20.14;81.50
51359;BME280;37448;51.588;7.248;2022-08-16T05:35:51;99983.47;;;20.11;81.70
51359;BME280;37448;51.588;7.248;2022-08-16T05:38:22;99979.00;;;20.13;81.59
51359;BME280;37448;51.588;7.248;2022-08-16T05:40:57;99973.97;;;20.21;80.79
51359;BME280;37448;51.588;7.248;2022-08-16T05:43:28;99978.56;;;20.27;80.37
51359;BME280;37448;51.588;7.248;2022-08-16T05:45:59;99982.72;;;20.35;79.79
51359;BME280;37448;51.588;7.248;2022-08-16T05:48:29;99974.66;;;20.37;79.84
51359;BME280;37448;51.588;7.248;2022-08-16T05:51:00;99978.78;;;20.45;79.25
51359;BME280;37448;51.588;7.248;2022-08-16T05:53:31;99977.00;;;20.51;79.01
51359;BME280;37448;51.588;7.248;2022-08-16T05:56:02;99982.34;;;20.59;78.71
51359;BME280;37448;51.588;7.248;2022-08-16T05:58:33;99982.81;;;20.70;78.15
51359;BME280;37448;51.588;7.248;2022-08-16T06:01:03;99992.75;;;20.71;78.35
51359;BME280;37448;51.588;7.248;2022-08-16T06:03:34;99991.28;;;20.79;77.54
51359;BME280;37448;51.588;7.248;2022-08-16T06:06:04;99985.06;;;20.96;77.36
51359;BME280;37448;51.588;7.248;2022-08-16T06:08:35;100004.94;;;21.89;74.84
51359;BME280;37448;51.588;7.248;2022-08-16T06:11:07;100005.75;;;23.09;69.96
51359;BME280;37448;51.588;7.248;2022-08-16T06:13:37;100010.41;;;23.94;67.28
51359;BME280;37448;51.588;7.248;2022-08-16T06:16:08;100005.00;;;24.66;64.05
51359;BME280;37448;51.588;7.248;2022-08-16T06:18:38;100017.31;;;25.01;61.61
51359;BME280;37448;51.588;7.248;2022-08-16T06:21:09;100017.44;;;25.54;59.14
51359;BME280;37448;51.588;7.248;2022-08-16T06:23:40;100020.00;;;26.25;57.62
51359;BME280;37448;51.588;7.248;2022-08-16T06:26:10;100032.06;;;26.75;56.45
51359;BME280;37448;51.588;7.248;2022-08-16T06:28:41;100031.41;;;27.01;54.13
51359;BME280;37448;51.588;7.248;2022-08-16T06:31:13;100027.78;;;26.65;54.31
51359;BME280;37448;51.588;7.248;2022-08-16T06:33:43;100024.25;;;27.20;52.01
51359;BME280;37448;51.588;7.248;2022-08-16T06:36:14;100018.28;;;27.38;51.68
51359;BME280;37448;51.588;7.248;2022-08-16T06:38:46;100010.06;;;27.81;51.45
51359;BME280;37448;51.588;7.248;2022-08-16T06:41:16;100013.75;;;27.46;51.12
51359;BME280;37448;51.588;7.248;2022-08-16T06:43:47;100020.47;;;27.95;49.45
51359;BME280;37448;51.588;7.248;2022-08-16T06:46:32;100027.53;;;28.36;47.84
51359;BME280;37448;51.588;7.248;2022-08-16T06:49:06;100033.91;;;28.63;48.11
51359;BME280;37448;51.588;7.248;2022-08-16T06:51:38;100032.38;;;28.67;46.71
51359;BME280;37448;51.588;7.248;2022-08-16T06:54:09;100040.09;;;28.67;47.74
51359;BME280;37448;51.588;7.248;2022-08-16T06:56:40;100045.81;;;28.41;47.19
51359;BME280;37448;51.588;7.248;2022-08-16T06:59:11;100047.09;;;28.71;47.25
51359;BME280;37448;51.588;7.248;2022-08-16T07:01:42;100046.16;;;28.54;47.12
51359;BME280;37448;51.588;7.248;2022-08-16T07:04:12;100041.44;;;28.71;46.38
51359;BME280;37448;51.588;7.248;2022-08-16T07:06:43;100050.63;;;28.66;46.38
51359;BME280;37448;51.588;7.248;2022-08-16T07:09:14;100046.84;;;28.43;47.31
51359;BME280;37448;51.588;7.248;2022-08-16T07:11:44;100052.50;;;28.75;46.45
51359;BME280;37448;51.588;7.248;2022-08-16T07:14:15;100064.22;;;28.62;46.67
51359;BME280;37448;51.588;7.248;2022-08-16T07:16:45;100054.16;;;28.92;46.21
51359;BME280;37448;51.588;7.248;2022-08-16T07:19:15;100051.81;;;29.33;45.44
51359;BME280;37448;51.588;7.248;2022-08-16T07:21:46;100051.50;;;29.26;45.11
51359;BME280;37448;51.588;7.248;2022-08-16T07:24:16;100050.59;;;28.97;45.70
51359;BME280;37448;51.588;7.248;2022-08-16T07:26:46;100050.88;;;29.59;45.00
51359;BME280;37448;51.588;7.248;2022-08-16T07:29:17;100049.75;;;30.04;43.56
51359;BME280;37448;51.588;7.248;2022-08-16T07:31:47;100045.84;;;29.96;43.24
51359;BME280;37448;51.588;7.248;2022-08-16T07:34:18;100054.94;;;30.50;43.12
51359;BME280;37448;51.588;7.248;2022-08-16T07:36:48;100051.56;;;30.68;41.57
51359;BME280;37448;51.588;7.248;2022-08-16T07:39:19;100055.91;;;30.86;42.02
51359;BME280;37448;51.588;7.248;2022-08-16T07:41:50;100063.63;;;31.02;41.52
51359;BME280;37448;51.588;7.248;2022-08-16T07:44:20;100064.34;;;31.31;40.25
51359;BME280;37448;51.588;7.248;2022-08-16T07:46:50;100060.06;;;30.68;41.50
51359;BME280;37448;51.588;7.248;2022-08-16T07:49:21;100062.28;;;31.25;40.26
51359;BME280;37448;51.588;7.248;2022-08-16T07:51:51;100071.25;;;31.41;40.93
51359;BME280;37448;51.588;7.248;2022-08-16T07:54:22;100070.63;;;30.84;41.33
51359;BME280;37448;51.588;7.248;2022-08-16T07:56:52;100070.47;;;31.46;38.85
51359;BME280;37448;51.588;7.248;2022-08-16T07:59:22;100081.19;;;31.75;39.59
51359;BME280;37448;51.588;7.248;2022-08-16T08:01:55;100084.03;;;32.22;38.63
51359;BME280;37448;51.588;7.248;2022-08-16T08:04:25;100079.03;;;31.92;38.66
51359;BME280;37448;51.588;7.248;2022-08-16T08:06:55;100088.41;;;31.82;39.64
51359;BME280;37448;51.588;7.248;2022-08-16T08:09:26;100083.59;;;31.60;39.28
51359;BME280;37448;51.588;7.248;2022-08-16T08:11:56;100091.59;;;32.49;37.26
51359;BME280;37448;51.588;7.248;2022-08-16T08:14:27;100101.88;;;33.12;35.60
51359;BME280;37448;51.588;7.248;2022-08-16T08:16:57;100103.94;;;32.87;35.56
51359;BME280;37448;51.588;7.248;2022-08-16T08:19:28;100104.19;;;32.24;37.60
51359;BME280;37448;51.588;7.248;2022-08-16T08:21:59;100105.38;;;32.34;38.46
51359;BME280;37448;51.588;7.248;2022-08-16T08:24:29;100109.00;;;32.99;35.73
51359;BME280;37448;51.588;7.248;2022-08-16T08:27:03;100107.88;;;32.48;36.66
51359;BME280;37448;51.588;7.248;2022-08-16T08:29:34;100107.41;;;32.39;37.25
51359;BME280;37448;51.588;7.248;2022-08-16T08:32:05;100104.56;;;32.39;36.98
51359;BME280;37448;51.588;7.248;2022-08-16T08:34:36;100108.66;;;33.33;34.51
51359;BME280;37448;51.588;7.248;2022-08-16T08:37:07;100106.84;;;33.54;33.88
51359;BME280;37448;51.588;7.248;2022-08-16T08:39:38;100102.97;;;33.94;33.15
51359;BME280;37448;51.588;7.248;2022-08-16T08:42:08;100107.38;;;33.52;33.60
51359;BME280;37448;51.588;7.248;2022-08-16T08:44:39;100112.13;;;33.44;33.62
51359;BME280;37448;51.588;7.248;2022-08-16T08:47:09;100112.47;;;33.11;35.59
51359;BME280;37448;51.588;7.248;2022-08-16T08:49:40;100112.59;;;33.73;33.39
51359;BME280;37448;51.588;7.248;2022-08-16T08:52:10;100121.16;;;33.73;33.23
51359;BME280;37448;51.588;7.248;2022-08-16T08:54:40;100123.09;;;33.59;33.87
51359;BME280;37448;51.588;7.248;2022-08-16T08:57:11;100118.38;;;33.43;32.10
51359;BME280;37448;51.588;7.248;2022-08-16T08:59:42;100111.38;;;33.68;33.13
51359;BME280;37448;51.588;7.248;2022-08-16T09:02:13;100116.91;;;32.47;35.06
51359;BME280;37448;51.588;7.248;2022-08-16T09:04:45;100121.94;;;33.00;34.22
51359;BME280;37448;51.588;7.248;2022-08-16T09:07:15;100117.38;;;32.62;35.12
51359;BME280;37448;51.588;7.248;2022-08-16T09:09:47;100119.47;;;32.21;35.15
51359;BME280;37448;51.588;7.248;2022-08-16T09:12:17;100120.72;;;32.90;34.79
51359;BME280;37448;51.588;7.248;2022-08-16T09:14:48;100108.34;;;32.52;34.26
51359;BME280;37448;51.588;7.248;2022-08-16T09:17:18;100115.59;;;33.37;34.40
51359;BME280;37448;51.588;7.248;2022-08-16T09:19:49;100114.91;;;34.12;32.46
51359;BME280;37448;51.588;7.248;2022-08-16T09:22:24;100125.94;;;34.21;31.44
51359;BME280;37448;51.588;7.248;2022-08-16T09:24:55;100118.91;;;34.40;32.25
51359;BME280;37448;51.588;7.248;2022-08-16T09:27:25;100123.84;;;34.40;31.97
51359;BME280;37448;51.588;7.248;2022-08-16T09:29:57;100118.56;;;34.76;30.80
51359;BME280;37448;51.588;7.248;2022-08-16T09:32:28;100127.19;;;34.57;30.67
51359;BME280;37448;51.588;7.248;2022-08-16T09:34:59;100121.78;;;34.85;31.09
51359;BME280;37448;51.588;7.248;2022-08-16T09:37:32;100128.84;;;34.34;30.64
51359;BME280;37448;51.588;7.248;2022-08-16T09:40:06;100118.38;;;34.05;31.60
51359;BME280;37448;51.588;7.248;2022-08-16T09:42:37;100123.06;;;34.71;31.33
51359;BME280;37448;51.588;7.248;2022-08-16T09:45:08;100117.97;;;34.64;31.06
51359;BME280;37448;51.588;7.248;2022-08-16T09:47:38;100123.53;;;34.25;31.77
51359;BME280;37448;51.588;7.248;2022-08-16T09:50:12;100124.06;;;33.67;32.04
51359;BME280;37448;51.588;7.248;2022-08-16T09:52:43;100112.50;;;33.78;31.94
51359;BME280;37448;51.588;7.248;2022-08-16T09:55:13;100121.28;;;33.37;32.98
51359;BME280;37448;51.588;7.248;2022-08-16T09:57:43;100109.50;;;34.08;32.26
51359;BME280;37448;51.588;7.248;2022-08-16T10:00:14;100116.06;;;34.22;31.25
51359;BME280;37448;51.588;7.248;2022-08-16T10:02:44;100115.34;;;35.11;29.50
51359;BME280;37448;51.588;7.248;2022-08-16T10:05:16;100112.19;;;35.28;28.80
51359;BME280;37448;51.588;7.248;2022-08-16T10:07:47;100111.09;;;35.31;28.84
51359;BME280;37448;51.588;7.248;2022-08-16T10:10:22;100112.28;;;35.49;28.71
51359;BME280;37448;51.588;7.248;2022-08-16T10:12:52;100107.53;;;34.99;29.87
51359;BME280;37448;51.588;7.248;2022-08-16T10:15:44;100106.03;;;33.96;31.10
51359;BME280;37448;51.588;7.248;2022-08-16T10:18:14;100115.63;;;34.81;29.70
51359;BME280;37448;51.588;7.248;2022-08-16T10:20:45;100112.34;;;34.77;29.08
51359;BME280;37448;51.588;7.248;2022-08-16T10:23:16;100111.22;;;34.80;29.77
51359;BME280;37448;51.588;7.248;2022-08-16T10:25:47;100111.94;;;35.13;28.88
51359;BME280;37448;51.588;7.248;2022-08-16T10:28:18;100109.00;;;35.45;28.58
51359;BME280;37448;51.588;7.248;2022-08-16T10:30:48;100120.84;;;34.64;30.29
51359;BME280;37448;51.588;7.248;2022-08-16T10:33:19;100109.34;;;34.01;30.57
51359;BME280;37448;51.588;7.248;2022-08-16T10:35:49;100110.81;;;34.90;30.15
51359;BME280;37448;51.588;7.248;2022-08-16T10:38:20;100105.72;;;34.00;30.10
51359;BME280;37448;51.588;7.248;2022-08-16T10:40:50;100111.31;;;35.46;28.61
51359;BME280;37448;51.588;7.248;2022-08-16T10:43:21;100115.28;;;35.30;28.92
51359;BME280;37448;51.588;7.248;2022-08-16T10:45:52;100126.47;;;35.28;28.20
51359;BME280;37448;51.588;7.248;2022-08-16T10:48:22;100121.69;;;34.59;29.09
51359;BME280;37448;51.588;7.248;2022-08-16T10:50:53;100127.75;;;35.01;28.76
51359;BME280;37448;51.588;7.248;2022-08-16T10:53:27;100117.38;;;34.02;30.12
51359;BME280;37448;51.588;7.248;2022-08-16T10:56:05;100124.00;;;35.06;28.92
51359;BME280;37448;51.588;7.248;2022-08-16T10:58:38;100127.53;;;35.91;26.50
51359;BME280;37448;51.588;7.248;2022-08-16T11:01:10;100129.00;;;35.58;27.78
51359;BME280;37448;51.588;7.248;2022-08-16T11:03:40;100126.91;;;35.58;27.66
51359;BME280;37448;51.588;7.248;2022-08-16T11:06:10;100134.75;;;34.87;28.56
51359;BME280;37448;51.588;7.248;2022-08-16T11:08:41;100125.53;;;34.94;28.04
51359;BME280;37448;51.588;7.248;2022-08-16T11:11:11;100125.81;;;35.74;26.07
51359;BME280;37448;51.588;7.248;2022-08-16T11:13:44;100129.44;;;35.36;27.03
51359;BME280;37448;51.588;7.248;2022-08-16T11:16:15;100127.59;;;35.51;26.67
51359;BME280;37448;51.588;7.248;2022-08-16T11:18:45;100135.41;;;34.93;28.03
51359;BME280;37448;51.588;7.248;2022-08-16T11:21:15;100134.94;;;35.47;27.09
51359;BME280;37448;51.588;7.248;2022-08-16T11:23:46;100127.25;;;35.28;26.99
51359;BME280;37448;51.588;7.248;2022-08-16T11:26:16;100127.09;;;35.87;26.42
51359;BME280;37448;51.588;7.248;2022-08-16T11:28:47;100125.63;;;36.20;25.73
51359;BME280;37448;51.588;7.248;2022-08-16T11:31:19;100129.00;;;35.18;27.27
51359;BME280;37448;51.588;7.248;2022-08-16T11:33:51;100127.09;;;34.95;28.24
51359;BME280;37448;51.588;7.248;2022-08-16T11:36:21;100126.81;;;34.66;28.07
51359;BME280;37448;51.588;7.248;2022-08-16T11:38:52;100122.75;;;35.72;26.22
51359;BME280;37448;51.588;7.248;2022-08-16T11:41:23;100131.31;;;35.86;26.33
51359;BME280;37448;51.588;7.248;2022-08-16T11:43:53;100137.03;;;35.33;27.10
51359;BME280;37448;51.588;7.248;2022-08-16T11:46:23;100138.69;;;36.28;24.75
51359;BME280;37448;51.588;7.248;2022-08-16T11:48:53;100141.44;;;35.60;25.37
51359;BME280;37448;51.588;7.248;2022-08-16T11:51:24;100139.19;;;35.93;25.49
51359;BME280;37448;51.588;7.248;2022-08-16T11:53:55;100122.44;;;36.10;24.98
51359;BME280;37448;51.588;7.248;2022-08-16T11:56:25;100130.22;;;35.49;25.72
51359;BME280;37448;51.588;7.248;2022-08-16T11:58:55;100125.38;;;35.44;26.00
51359;BME280;37448;51.588;7.248;2022-08-16T12:01:26;100131.09;;;35.70;26.24
51359;BME280;37448;51.588;7.248;2022-08-16T12:03:56;100127.16;;;35.34;26.47
51359;BME280;37448;51.588;7.248;2022-08-16T12:06:27;100133.97;;;34.86;26.12
51359;BME280;37448;51.588;7.248;2022-08-16T12:08:59;100120.91;;;34.77;27.14
51359;BME280;37448;51.588;7.248;2022-08-16T12:11:31;100124.16;;;35.13;27.17
51359;BME280;37448;51.588;7.248;2022-08-16T12:14:03;100122.91;;;34.13;27.93
51359;BME280;37448;51.588;7.248;2022-08-16T12:16:34;100126.28;;;34.49;27.80
51359;BME280;37448;51.588;7.248;2022-08-16T12:19:07;100125.84;;;35.22;27.12
51359;BME280;37448;51.588;7.248;2022-08-16T12:21:37;100127.88;;;35.08;27.94
51359;BME280;37448;51.588;7.248;2022-08-16T12:24:08;100124.03;;;34.42;27.49
51359;BME280;37448;51.588;7.248;2022-08-16T12:26:38;100127.75;;;34.88;26.46
51359;BME280;37448;51.588;7.248;2022-08-16T12:29:09;100127.00;;;34.18;27.67
51359;BME280;37448;51.588;7.248;2022-08-16T12:31:41;100123.63;;;34.51;26.45
51359;BME280;37448;51.588;7.248;2022-08-16T12:34:11;100132.19;;;33.58;27.48
51359;BME280;37448;51.588;7.248;2022-08-16T12:36:42;100122.00;;;34.24;25.98
51359;BME280;37448;51.588;7.248;2022-08-16T12:39:13;100122.34;;;34.52;25.79
51359;BME280;37448;51.588;7.248;2022-08-16T12:41:44;100126.41;;;34.89;25.74
51359;BME280;37448;51.588;7.248;2022-08-16T12:44:15;100124.66;;;34.99;25.04
51359;BME280;37448;51.588;7.248;2022-08-16T12:46:46;100122.56;;;34.54;26.87
51359;BME280;37448;51.588;7.248;2022-08-16T12:49:37;100122.31;;;35.42;25.50
51359;BME280;37448;51.588;7.248;2022-08-16T12:52:08;100127.78;;;34.37;25.60
51359;BME280;37448;51.588;7.248;2022-08-16T12:54:38;100128.41;;;34.11;26.84
51359;BME280;37448;51.588;7.248;2022-08-16T12:57:09;100124.00;;;33.73;27.09
51359;BME280;37448;51.588;7.248;2022-08-16T12:59:40;100117.41;;;33.59;27.30
51359;BME280;37448;51.588;7.248;2022-08-16T13:02:11;100118.13;;;33.41;27.64
51359;BME280;37448;51.588;7.248;2022-08-16T13:04:42;100123.84;;;33.41;27.58
51359;BME280;37448;51.588;7.248;2022-08-16T13:07:12;100117.63;;;33.85;27.09
51359;BME280;37448;51.588;7.248;2022-08-16T13:09:42;100117.53;;;34.10;26.49
51359;BME280;37448;51.588;7.248;2022-08-16T13:12:23;100114.97;;;34.25;26.16
51359;BME280;37448;51.588;7.248;2022-08-16T13:14:57;100116.22;;;33.92;26.71
51359;BME280;37448;51.588;7.248;2022-08-16T13:17:27;100123.22;;;33.72;26.48
51359;BME280;37448;51.588;7.248;2022-08-16T13:19:58;100116.56;;;32.91;28.65